Terminal Aerodrome Forecast
Issued by NWS

Home | Current Version | Previous Version | Text Only | Print | Product List | Glossary On
Versions: 1 2 3 4 5 6 7 8 9 10 11 12 13 14 15 16 17 18 19 20 21 22 23 24
000
FTUS42 KGSP 302337
TAFHKY
TAF
KHKY 302337Z 3100/3124 VRB03KT P6SM VCSH SCT050 OVC120
     FM310500 35003KT P6SM OVC020
     FM310800 00000KT 4SM BR OVC008
     FM311400 04003KT P6SM BKN015
     FM311600 04003KT P6SM BKN025
     FM311800 04003KT P6SM SCT045
     FM312100 09003KT P6SM BKN060 PROB30 3121/3124 4SM TSRA
      BKN040CB=

USA.gov is the U.S. government's official web portal to all federal, state and local government web resources and services.